Time;durP1;ratioP1;P1;durP2;ratioP2;P2;SDS_P1;SDS_P2;PMS_P1;PMS_P2;Temp;Humidity;BMP_temperature;BMP_pressure;BME280_temperature;BME280_humidity;BME280_pressure;Samples;Min_cycle;Max_cycle;Signal;HPM_P1;HPM_P2
2022/01/20 00:00:55;;;;;;;9.90;9.60;;;3.10;99.90;;;;;;5083907;28;20261;-82
2022/01/20 00:03:31;;;;;;;10.00;9.70;;;3.10;99.90;;;;;;5084180;28;20237;-82
2022/01/20 00:09:30;;;;;;;10.10;9.80;;;3.00;99.90;;;;;;5156239;27;1484492;-81
2022/01/20 00:26:04;;;;;;;9.90;9.60;;;2.90;99.90;;;;;;5107283;28;20233;-81
2022/01/20 00:28:41;;;;;;;10.00;9.70;;;2.90;99.90;;;;;;5145621;27;20235;-81
2022/01/20 00:31:30;;;;;;;9.70;9.40;;;2.90;99.90;;;;;;5166465;27;20227;-81
2022/01/20 00:34:10;;;;;;;9.73;9.43;;;2.90;99.90;;;;;;5164833;27;20254;-80
2022/01/20 00:39:23;;;;;;;10.00;9.70;;;2.80;99.90;;;;;;5163475;27;20196;-80
2022/01/20 00:41:52;;;;;;;9.87;9.57;;;2.80;99.90;;;;;;5162699;27;20292;-83
2022/01/20 00:44:20;;;;;;;9.90;9.60;;;2.80;99.90;;;;;;5162568;27;20224;-82
2022/01/20 00:46:48;;;;;;;9.47;9.17;;;2.80;99.90;;;;;;5163358;27;20239;-81
2022/01/20 00:49:17;;;;;;;9.67;9.37;;;2.80;99.90;;;;;;5162972;27;20215;-81
2022/01/20 00:51:47;;;;;;;9.40;9.10;;;2.80;99.90;;;;;;5164213;27;20228;-81
2022/01/20 00:54:16;;;;;;;9.50;9.20;;;2.80;99.90;;;;;;5163043;27;20227;-80
2022/01/20 00:56:45;;;;;;;9.57;9.27;;;2.80;99.90;;;;;;5162919;27;20243;-81
2022/01/20 00:59:24;;;;;;;9.43;9.13;;;2.70;99.90;;;;;;5162326;27;20231;-81
2022/01/20 01:01:53;;;;;;;9.40;9.10;;;2.70;99.90;;;;;;5166416;27;20289;-82
2022/01/20 01:04:23;;;;;;;9.40;9.10;;;2.70;99.90;;;;;;5165316;27;20292;-82
2022/01/20 01:07:15;;;;;;;9.50;9.20;;;2.70;99.90;;;;;;5163993;27;20272;-82
2022/01/20 01:12:33;;;;;;;9.10;8.80;;;2.70;99.90;;;;;;5162118;27;20234;-81
2022/01/20 01:15:18;;;;;;;9.37;9.07;;;2.70;99.90;;;;;;5162897;27;20254;-81
2022/01/20 01:20:35;;;;;;;9.30;9.00;;;2.70;99.90;;;;;;5147607;27;20303;-82
2022/01/20 01:25:46;;;;;;;9.60;9.30;;;2.70;99.90;;;;;;5156971;27;20715;-82
2022/01/20 01:28:16;;;;;;;9.50;9.20;;;2.60;99.90;;;;;;5161199;27;20228;-81
2022/01/20 01:33:36;;;;;;;9.40;9.10;;;2.50;99.90;;;;;;5160765;27;20204;-81
2022/01/20 01:36:07;;;;;;;9.70;9.40;;;2.50;99.90;;;;;;5164198;27;20216;-81
2022/01/20 01:38:43;;;;;;;9.50;9.20;;;2.50;99.90;;;;;;5164158;27;20239;-81
2022/01/20 01:41:15;;;;;;;9.40;9.10;;;2.50;99.90;;;;;;5164130;27;20216;-81
2022/01/20 01:43:51;;;;;;;9.77;9.47;;;2.50;99.90;;;;;;5163757;27;20231;-81
2022/01/20 01:46:29;;;;;;;9.50;9.20;;;2.50;99.90;;;;;;5163862;27;20271;-81
2022/01/20 01:48:57;;;;;;;9.10;8.80;;;2.50;99.90;;;;;;5163857;27;20414;-81
2022/01/20 01:51:26;;;;;;;9.40;9.10;;;2.50;99.90;;;;;;5163705;27;20192;-81
2022/01/20 01:53:56;;;;;;;9.30;9.00;;;2.50;99.90;;;;;;5163943;27;20204;-82
2022/01/20 01:56:25;;;;;;;9.17;8.87;;;2.50;99.90;;;;;;5163290;27;20220;-81
2022/01/20 01:58:55;;;;;;;8.70;8.50;;;2.50;99.90;;;;;;5161343;27;20228;-82
2022/01/20 02:01:36;;;;;;;8.77;8.57;;;2.50;99.90;;;;;;5153567;27;20297;-81
2022/01/20 02:04:15;;;;;;;8.60;8.40;;;2.50;99.90;;;;;;5153325;27;20259;-82
2022/01/20 02:17:50;;;;;;;8.60;8.40;;;2.50;99.90;;;;;;5127755;27;20220;-81
2022/01/20 02:18:36;;;;;;;8.73;8.53;;;2.50;99.90;;;;;;5150390;27;20228;-82
2022/01/20 02:21:11;;;;;;;9.23;8.93;;;2.50;99.90;;;;;;5148699;27;20281;-81
2022/01/20 02:23:40;;;;;;;9.00;8.70;;;2.50;99.90;;;;;;5149293;27;20289;-81
2022/01/20 02:29:33;;;;;;;9.20;8.90;;;2.50;99.90;;;;;;5108899;27;20322;-80
2022/01/20 02:32:02;;;;;;;9.43;9.13;;;2.60;99.90;;;;;;5145950;27;20228;-80
2022/01/20 02:34:31;;;;;;;9.20;8.90;;;2.60;99.90;;;;;;5146954;27;20224;-81
2022/01/20 02:37:12;;;;;;;9.10;8.80;;;2.60;99.90;;;;;;5145545;27;20228;-81
2022/01/20 02:40:02;;;;;;;9.20;8.90;;;2.60;99.90;;;;;;5145500;27;20235;-81
2022/01/20 02:45:15;;;;;;;9.20;8.90;;;2.60;99.90;;;;;;5146706;27;20216;-80
2022/01/20 02:47:43;;;;;;;8.90;8.60;;;2.60;99.90;;;;;;5147648;27;20257;-80
2022/01/20 02:50:11;;;;;;;9.13;8.83;;;2.60;99.90;;;;;;5147654;27;20278;-81
2022/01/20 02:52:49;;;;;;;9.40;9.10;;;2.60;99.90;;;;;;5148431;27;20220;-83
2022/01/20 02:55:19;;;;;;;9.43;9.13;;;2.60;99.90;;;;;;5155636;27;20220;-80
2022/01/20 02:57:48;;;;;;;9.33;9.03;;;2.60;99.90;;;;;;5151418;27;20240;-82
2022/01/20 03:00:17;;;;;;;9.50;9.20;;;2.60;99.90;;;;;;5149251;27;20305;-81
2022/01/20 03:02:48;;;;;;;9.50;9.20;;;2.60;99.90;;;;;;5148086;27;20247;-81
2022/01/20 03:05:18;;;;;;;9.50;9.20;;;2.60;99.90;;;;;;5147799;27;20224;-81
2022/01/20 03:07:55;;;;;;;9.30;9.00;;;2.60;99.90;;;;;;5148281;27;20294;-82
2022/01/20 03:10:24;;;;;;;9.13;8.83;;;2.60;99.90;;;;;;5148531;27;20360;-82
2022/01/20 03:12:53;;;;;;;9.40;9.10;;;2.70;99.90;;;;;;5148221;27;20267;-82
2022/01/20 03:15:23;;;;;;;9.37;9.07;;;2.60;99.90;;;;;;5147519;27;20247;-82
2022/01/20 03:17:53;;;;;;;9.30;9.00;;;2.60;99.90;;;;;;5147798;27;20252;-82
2022/01/20 03:20:32;;;;;;;9.23;8.93;;;2.60;99.90;;;;;;5148482;27;20232;-82
2022/01/20 03:23:09;;;;;;;9.60;9.30;;;2.60;99.90;;;;;;5146822;27;20229;-82
2022/01/20 03:25:38;;;;;;;9.30;9.00;;;2.60;99.90;;;;;;5146828;27;20699;-81
2022/01/20 03:28:08;;;;;;;9.03;8.73;;;2.60;99.90;;;;;;5146447;27;20247;-81
2022/01/20 03:30:41;;;;;;;9.50;9.20;;;2.60;99.90;;;;;;5146373;27;20227;-81
2022/01/20 03:33:09;;;;;;;9.50;9.20;;;2.60;99.90;;;;;;5146064;27;20212;-81
2022/01/20 03:35:40;;;;;;;9.60;9.30;;;2.60;99.90;;;;;;5146300;27;20248;-81
2022/01/20 03:38:11;;;;;;;9.40;9.10;;;2.60;99.90;;;;;;5146465;27;20300;-81
2022/01/20 03:40:39;;;;;;;9.37;9.07;;;2.60;99.90;;;;;;5146133;27;20243;-80
2022/01/20 03:43:06;;;;;;;9.50;9.20;;;2.60;99.90;;;;;;5146185;27;20220;-81
2022/01/20 03:45:36;;;;;;;9.30;9.00;;;2.60;99.90;;;;;;5146346;27;20217;-81
2022/01/20 03:48:09;;;;;;;9.50;9.20;;;2.60;99.90;;;;;;5154739;27;20281;-81
2022/01/20 03:53:30;;;;;;;9.40;9.10;;;2.60;99.90;;;;;;5148581;27;20212;-81
2022/01/20 03:56:00;;;;;;;9.67;9.37;;;2.60;99.90;;;;;;5147849;27;20212;-81
2022/01/20 03:58:29;;;;;;;9.50;9.20;;;2.60;99.90;;;;;;5146829;27;20261;-81
2022/01/20 04:00:59;;;;;;;9.40;9.10;;;2.60;99.90;;;;;;5147047;27;20235;-81
2022/01/20 04:03:28;;;;;;;9.57;9.27;;;2.50;99.90;;;;;;5146512;27;20331;-81
2022/01/20 04:06:00;;;;;;;9.50;9.20;;;2.50;99.90;;;;;;5146651;27;20220;-81
2022/01/20 04:08:36;;;;;;;9.47;9.17;;;2.50;99.90;;;;;;5145088;27;20239;-81
2022/01/20 04:11:06;;;;;;;9.40;9.10;;;2.50;99.90;;;;;;5147714;27;20253;-81
2022/01/20 04:13:35;;;;;;;9.40;9.10;;;2.50;99.90;;;;;;5148550;27;20220;-81
2022/01/20 04:16:12;;;;;;;9.30;9.00;;;2.50;99.90;;;;;;5146610;27;20242;-81
2022/01/20 04:18:51;;;;;;;9.27;8.97;;;2.40;99.90;;;;;;5146753;27;20275;-81
2022/01/20 04:21:21;;;;;;;9.00;8.70;;;2.50;99.90;;;;;;5145292;27;20235;-81
2022/01/20 04:24:00;;;;;;;8.73;8.53;;;2.50;99.90;;;;;;5145034;27;20319;-81
2022/01/20 04:26:29;;;;;;;9.17;8.87;;;2.50;99.90;;;;;;5144285;27;20216;-81
2022/01/20 04:28:58;;;;;;;9.27;8.97;;;2.50;99.90;;;;;;5145274;27;20323;-81
2022/01/20 04:31:29;;;;;;;9.20;8.90;;;2.50;99.90;;;;;;5145615;27;20228;-81
2022/01/20 04:33:57;;;;;;;9.10;8.80;;;2.50;99.90;;;;;;5145327;27;20232;-81
2022/01/20 04:36:27;;;;;;;9.20;8.90;;;2.60;99.90;;;;;;5152919;27;20219;-81
2022/01/20 04:41:43;;;;;;;9.30;9.00;;;2.60;99.90;;;;;;5155346;27;20256;-81
2022/01/20 04:44:17;;;;;;;9.03;8.73;;;2.60;99.90;;;;;;5149483;27;20216;-81
2022/01/20 04:57:43;;;;;;;9.13;8.83;;;2.80;99.90;;;;;;5152306;22;20240;-82
2022/01/20 05:00:12;;;;;;;9.20;8.90;;;2.80;99.90;;;;;;5104254;28;20229;-82
2022/01/20 05:02:40;;;;;;;9.40;9.10;;;2.80;99.90;;;;;;5084135;28;20230;-82
2022/01/20 05:05:09;;;;;;;9.27;8.97;;;2.80;99.90;;;;;;5083223;28;20229;-82
2022/01/20 05:07:37;;;;;;;9.50;9.20;;;2.90;99.90;;;;;;5083785;28;20233;-82
2022/01/20 05:10:11;;;;;;;9.60;9.30;;;2.90;99.90;;;;;;5091226;28;20234;-84
2022/01/20 05:13:01;;;;;;;9.40;9.10;;;2.90;99.90;;;;;;5084127;28;20286;-81
2022/01/20 05:15:27;;;;;;;9.40;9.10;;;2.80;99.90;;;;;;5083902;28;20258;-80
2022/01/20 05:17:55;;;;;;;9.50;9.20;;;2.80;99.90;;;;;;5084303;28;20288;-81
2022/01/20 05:20:23;;;;;;;9.40;9.10;;;2.80;99.90;;;;;;5083878;28;20287;-81
2022/01/20 05:22:51;;;;;;;9.43;9.13;;;2.90;99.90;;;;;;5084921;28;20256;-82
2022/01/20 05:25:20;;;;;;;9.30;9.00;;;2.90;99.90;;;;;;5084943;28;20230;-82
2022/01/20 05:27:48;;;;;;;9.37;9.07;;;2.90;99.90;;;;;;5088222;28;20249;-82
2022/01/20 05:30:16;;;;;;;9.70;9.40;;;2.90;99.90;;;;;;5108758;28;20256;-83
2022/01/20 05:32:44;;;;;;;9.53;9.23;;;2.90;99.90;;;;;;5120399;28;20224;-83
2022/01/20 05:35:12;;;;;;;9.50;9.20;;;2.90;99.90;;;;;;5121589;28;20243;-83
2022/01/20 05:37:40;;;;;;;9.63;9.33;;;2.90;99.90;;;;;;5120915;28;20213;-83
2022/01/20 05:40:09;;;;;;;9.63;9.33;;;2.80;99.90;;;;;;5121550;28;20214;-82
2022/01/20 05:42:39;;;;;;;9.63;9.33;;;2.80;99.90;;;;;;5121117;28;20233;-83
2022/01/20 05:45:08;;;;;;;9.90;9.60;;;2.80;99.90;;;;;;5121043;28;20221;-82
2022/01/20 05:47:43;;;;;;;9.77;9.47;;;2.80;99.90;;;;;;5120186;28;20237;-83
2022/01/20 05:50:11;;;;;;;9.87;9.57;;;2.80;99.90;;;;;;5120183;28;20221;-82
2022/01/20 05:52:41;;;;;;;9.77;9.47;;;2.80;99.90;;;;;;5120887;28;20233;-83
2022/01/20 05:55:12;;;;;;;9.60;9.30;;;2.90;99.90;;;;;;5121002;28;20230;-83
2022/01/20 05:57:42;;;;;;;9.80;9.50;;;2.90;99.90;;;;;;5120522;28;20271;-83
2022/01/20 06:00:15;;;;;;;10.10;9.80;;;2.90;99.90;;;;;;5120862;28;20240;-83
2022/01/20 06:05:24;;;;;;;10.10;9.80;;;2.90;99.90;;;;;;5118382;28;20273;-82
2022/01/20 06:07:52;;;;;;;10.03;9.73;;;3.00;99.90;;;;;;5120511;28;20236;-82
2022/01/20 06:10:20;;;;;;;9.97;9.67;;;2.90;99.90;;;;;;5119822;28;20233;-83
2022/01/20 06:12:49;;;;;;;9.90;9.60;;;3.00;99.90;;;;;;5111866;28;20225;-83
2022/01/20 06:15:17;;;;;;;9.60;9.30;;;3.00;99.90;;;;;;5120203;28;20209;-82
2022/01/20 06:17:45;;;;;;;9.70;9.40;;;2.90;99.90;;;;;;5120021;28;20204;-82
2022/01/20 06:20:13;;;;;;;9.87;9.57;;;2.90;99.90;;;;;;5120050;28;20244;-83
2022/01/20 06:22:42;;;;;;;9.80;9.50;;;2.90;99.90;;;;;;5119630;28;20323;-83
2022/01/20 06:25:10;;;;;;;9.80;9.50;;;2.90;99.90;;;;;;5112012;28;20233;-83
2022/01/20 06:27:38;;;;;;;9.80;9.50;;;2.90;99.90;;;;;;5102203;28;20234;-83
2022/01/20 06:30:09;;;;;;;9.90;9.60;;;2.80;99.90;;;;;;5101724;28;20237;-83
2022/01/20 06:32:37;;;;;;;9.70;9.40;;;2.80;99.90;;;;;;5101942;28;20237;-83
2022/01/20 06:35:07;;;;;;;10.20;9.90;;;2.80;99.90;;;;;;5101434;28;20488;-84
2022/01/20 06:37:35;;;;;;;10.13;9.83;;;2.80;99.90;;;;;;5102017;28;20255;-81
2022/01/20 06:40:06;;;;;;;10.43;10.13;;;2.80;99.90;;;;;;5099879;28;20423;-82
2022/01/20 06:42:34;;;;;;;10.37;10.07;;;2.80;99.90;;;;;;5102259;28;20232;-83
2022/01/20 06:45:02;;;;;;;10.03;9.73;;;2.80;99.90;;;;;;5102178;28;20238;-82
2022/01/20 06:47:31;;;;;;;10.10;9.80;;;2.80;99.90;;;;;;5103057;28;20230;-83
2022/01/20 06:49:59;;;;;;;10.60;10.30;;;2.80;99.90;;;;;;5102963;28;20264;-82
2022/01/20 06:52:27;;;;;;;10.30;10.00;;;2.80;99.90;;;;;;5102552;28;20229;-82
2022/01/20 06:54:56;;;;;;;10.27;9.97;;;2.70;99.90;;;;;;5114619;28;20237;-82
2022/01/20 06:57:24;;;;;;;10.23;9.93;;;2.70;99.90;;;;;;5105653;28;20255;-82
2022/01/20 06:59:52;;;;;;;10.43;10.13;;;2.70;99.90;;;;;;5105538;28;20231;-82
2022/01/20 07:02:20;;;;;;;10.80;10.50;;;2.60;99.90;;;;;;5110809;28;20222;-81
2022/01/20 07:04:49;;;;;;;10.57;10.27;;;2.60;99.90;;;;;;5113739;28;20225;-80
2022/01/20 07:07:17;;;;;;;10.50;10.20;;;2.60;99.90;;;;;;5115130;28;20248;-83
2022/01/20 07:09:45;;;;;;;10.77;10.47;;;2.60;99.90;;;;;;5111493;28;20287;-82
2022/01/20 07:12:14;;;;;;;10.60;10.30;;;2.60;99.90;;;;;;5110249;28;20260;-80
2022/01/20 07:14:42;;;;;;;10.47;10.17;;;2.60;99.90;;;;;;5107005;28;20230;-80
2022/01/20 07:17:10;;;;;;;10.40;10.10;;;2.60;99.90;;;;;;5100006;28;20257;-80
2022/01/20 07:19:38;;;;;;;10.47;10.17;;;2.60;99.90;;;;;;5102781;28;20287;-82
2022/01/20 07:22:07;;;;;;;10.40;10.10;;;2.60;99.90;;;;;;5100743;28;20236;-80
2022/01/20 07:24:35;;;;;;;10.37;10.07;;;2.60;99.90;;;;;;5103392;28;20303;-80
2022/01/20 07:27:03;;;;;;;10.63;10.33;;;2.60;99.90;;;;;;5106271;28;20264;-82
2022/01/20 07:29:31;;;;;;;10.70;10.40;;;2.60;99.90;;;;;;5103336;28;20237;-82
2022/01/20 07:32:01;;;;;;;10.57;10.27;;;2.60;99.90;;;;;;5099401;28;20240;-83
2022/01/20 07:34:29;;;;;;;10.70;10.40;;;2.70;99.90;;;;;;5100652;28;20248;-82
2022/01/20 07:36:57;;;;;;;10.43;10.13;;;2.70;99.90;;;;;;5100286;28;20221;-83
2022/01/20 07:39:26;;;;;;;10.50;10.20;;;2.70;99.90;;;;;;5100720;28;20303;-83
2022/01/20 07:41:54;;;;;;;10.53;10.23;;;2.80;99.90;;;;;;5100133;28;20236;-82
2022/01/20 07:44:22;;;;;;;10.60;10.30;;;2.80;99.90;;;;;;5100783;28;20244;-82
2022/01/20 07:46:50;;;;;;;10.47;10.17;;;2.80;99.90;;;;;;5100313;28;20225;-83
2022/01/20 07:49:18;;;;;;;10.80;10.50;;;2.80;99.90;;;;;;5099884;28;20240;-83
2022/01/20 07:51:46;;;;;;;10.13;9.83;;;2.80;99.90;;;;;;5100264;28;20755;-83
2022/01/20 07:54:14;;;;;;;10.50;10.20;;;2.80;99.90;;;;;;5100531;28;20229;-82
2022/01/20 07:56:43;;;;;;;10.47;10.17;;;2.80;99.90;;;;;;5099687;28;20225;-83
2022/01/20 07:59:11;;;;;;;10.33;10.03;;;2.80;99.90;;;;;;5100040;28;20237;-83
2022/01/20 08:01:39;;;;;;;10.47;10.17;;;2.80;99.90;;;;;;5099316;28;20233;-83
2022/01/20 08:04:07;;;;;;;10.37;10.07;;;2.80;99.90;;;;;;5100005;28;20236;-83
2022/01/20 08:06:35;;;;;;;10.40;10.10;;;2.80;99.90;;;;;;5097701;28;20276;-84
2022/01/20 08:09:03;;;;;;;10.90;10.60;;;2.80;99.90;;;;;;5078707;28;20436;-86
2022/01/20 08:11:31;;;;;;;10.70;10.40;;;2.80;99.90;;;;;;5080435;28;20226;-85
2022/01/20 08:14:01;;;;;;;10.70;10.40;;;2.90;99.90;;;;;;5082260;28;20233;-85
2022/01/20 08:16:29;;;;;;;10.50;10.20;;;2.90;99.90;;;;;;5081348;28;20225;-84
2022/01/20 08:18:56;;;;;;;10.30;10.00;;;2.90;99.90;;;;;;5080395;28;20245;-82
2022/01/20 08:21:24;;;;;;;10.40;10.10;;;3.00;99.90;;;;;;5086982;28;20230;-80
2022/01/20 08:23:52;;;;;;;10.60;10.30;;;3.00;99.90;;;;;;5093622;28;20273;-82
2022/01/20 08:26:20;;;;;;;10.13;9.83;;;3.00;99.90;;;;;;5079036;28;20245;-82
2022/01/20 08:28:48;;;;;;;10.67;10.37;;;3.00;99.90;;;;;;5078873;28;20234;-82
2022/01/20 08:31:17;;;;;;;10.70;10.40;;;3.00;99.90;;;;;;5084611;28;20233;-83
2022/01/20 08:33:46;;;;;;;10.17;9.87;;;2.90;99.90;;;;;;5083014;28;20303;-82
2022/01/20 08:36:14;;;;;;;10.40;10.10;;;2.90;99.90;;;;;;5084149;28;20221;-82
2022/01/20 08:38:41;;;;;;;10.87;10.57;;;2.90;99.90;;;;;;5081271;28;20237;-83
2022/01/20 08:41:09;;;;;;;10.40;10.10;;;2.90;99.90;;;;;;5081972;28;20234;-82
2022/01/20 08:43:39;;;;;;;10.80;10.50;;;2.90;99.90;;;;;;5082107;28;20233;-79
2022/01/20 08:46:08;;;;;;;10.40;10.10;;;3.00;99.90;;;;;;5081046;28;20234;-79
2022/01/20 08:48:39;;;;;;;10.43;10.13;;;3.20;99.90;;;;;;5081425;28;20319;-82
2022/01/20 08:51:08;;;;;;;10.33;10.03;;;3.30;99.90;;;;;;5081809;28;20226;-80
2022/01/20 08:53:36;;;;;;;10.40;10.10;;;3.30;99.90;;;;;;5082997;28;20308;-80
2022/01/20 08:56:05;;;;;;;10.40;10.10;;;3.30;99.90;;;;;;5091909;28;20218;-81
2022/01/20 08:58:33;;;;;;;10.47;10.17;;;3.20;99.90;;;;;;5082407;28;20292;-80
2022/01/20 09:01:02;;;;;;;10.37;10.07;;;3.20;99.90;;;;;;5082788;28;20241;-80
2022/01/20 09:03:32;;;;;;;10.57;10.27;;;3.30;99.90;;;;;;5082304;28;20300;-83
2022/01/20 09:06:02;;;;;;;10.37;10.07;;;3.30;99.90;;;;;;5082095;28;20301;-81
2022/01/20 09:08:30;;;;;;;10.17;9.87;;;3.30;99.90;;;;;;5081976;28;20298;-81
2022/01/20 09:10:58;;;;;;;10.30;10.00;;;3.30;99.90;;;;;;5081182;28;20245;-81
2022/01/20 09:16:10;;;;;;;10.60;10.30;;;3.30;99.90;;;;;;5082730;28;20297;-80
2022/01/20 09:18:38;;;;;;;10.47;10.17;;;3.30;99.90;;;;;;5081360;28;20292;-81
2022/01/20 09:21:07;;;;;;;10.50;10.20;;;3.30;99.90;;;;;;5081234;28;20272;-81
2022/01/20 09:23:35;;;;;;;10.20;9.90;;;3.40;99.90;;;;;;5081197;28;20245;-81
2022/01/20 09:26:03;;;;;;;10.37;10.07;;;3.40;99.90;;;;;;5079767;28;20228;-82
2022/01/20 09:28:31;;;;;;;10.20;9.90;;;3.50;99.90;;;;;;5080718;28;20245;-82
2022/01/20 09:31:00;;;;;;;9.90;9.60;;;3.50;99.90;;;;;;5079932;28;20244;-82
2022/01/20 09:33:29;;;;;;;10.07;9.77;;;3.70;99.90;;;;;;5080708;28;20684;-82
2022/01/20 09:35:58;;;;;;;10.10;9.80;;;3.70;99.90;;;;;;5080180;28;20230;-82
2022/01/20 09:38:28;;;;;;;10.20;9.90;;;3.70;99.90;;;;;;5080860;28;20288;-82
2022/01/20 09:40:56;;;;;;;10.10;9.80;;;3.70;99.90;;;;;;5079735;28;20265;-82
2022/01/20 09:43:24;;;;;;;9.93;9.63;;;3.80;99.90;;;;;;5080432;28;20238;-82
2022/01/20 09:45:55;;;;;;;9.80;9.50;;;4.00;99.90;;;;;;5080427;28;20234;-81
2022/01/20 09:48:24;;;;;;;9.93;9.63;;;3.90;99.90;;;;;;5081348;28;20242;-82
2022/01/20 09:50:53;;;;;;;10.10;9.80;;;3.90;99.90;;;;;;5081167;28;20922;-82
2022/01/20 09:53:21;;;;;;;10.40;10.10;;;3.90;99.90;;;;;;5082415;28;20230;-82
2022/01/20 09:55:51;;;;;;;10.40;10.10;;;3.80;99.90;;;;;;5082809;28;20234;-81
2022/01/20 09:58:18;;;;;;;10.00;9.70;;;3.90;99.90;;;;;;5082979;28;20264;-81
2022/01/20 10:00:47;;;;;;;10.30;10.00;;;3.80;99.90;;;;;;5082769;28;20234;-81
2022/01/20 10:03:17;;;;;;;10.27;9.97;;;3.80;99.90;;;;;;5083315;28;20238;-81
2022/01/20 10:05:48;;;;;;;10.30;10.00;;;3.70;99.90;;;;;;5083283;28;21041;-80
2022/01/20 10:08:22;;;;;;;10.40;10.10;;;3.60;99.90;;;;;;5083815;28;20238;-81
2022/01/20 10:10:55;;;;;;;10.10;9.80;;;3.60;99.90;;;;;;5083422;28;20313;-81
2022/01/20 10:13:26;;;;;;;10.20;9.90;;;3.60;99.90;;;;;;5083280;28;20241;-81
2022/01/20 10:16:01;;;;;;;10.10;9.80;;;3.60;99.90;;;;;;5083716;28;20226;-81
2022/01/20 10:18:30;;;;;;;10.10;9.80;;;3.90;99.90;;;;;;5083031;28;20233;-81
2022/01/20 10:21:01;;;;;;;9.90;9.60;;;3.90;99.90;;;;;;5083273;28;20245;-81
2022/01/20 10:23:38;;;;;;;10.10;9.80;;;4.00;99.90;;;;;;5082625;28;20237;-80
2022/01/20 10:26:13;;;;;;;9.97;9.67;;;4.00;99.90;;;;;;5071708;28;20244;-81
2022/01/20 10:29:01;;;;;;;10.27;9.97;;;4.00;99.90;;;;;;5082532;28;20303;-81
2022/01/20 10:31:36;;;;;;;10.03;9.73;;;4.10;99.90;;;;;;5081900;28;20329;-81
2022/01/20 10:34:06;;;;;;;9.90;9.60;;;4.00;99.90;;;;;;5082998;28;20230;-82
2022/01/20 10:36:39;;;;;;;9.40;9.10;;;4.00;99.90;;;;;;5082039;28;20290;-80
2022/01/20 10:39:08;;;;;;;9.53;9.23;;;4.00;99.90;;;;;;5083217;28;20238;-81
2022/01/20 10:41:41;;;;;;;9.33;9.03;;;3.90;99.90;;;;;;5081520;28;20230;-82
2022/01/20 10:44:14;;;;;;;9.30;9.00;;;3.90;99.90;;;;;;5081526;28;20235;-81
2022/01/20 10:46:52;;;;;;;9.30;9.00;;;4.00;99.90;;;;;;5082397;28;20253;-81
2022/01/20 10:49:23;;;;;;;9.60;9.30;;;3.90;99.90;;;;;;5084369;28;20234;-81
2022/01/20 10:52:04;;;;;;;9.60;9.30;;;3.90;99.90;;;;;;5079118;28;20264;-81
2022/01/20 10:54:42;;;;;;;9.73;9.43;;;3.80;99.90;;;;;;5062710;28;20227;-81
2022/01/20 10:57:15;;;;;;;9.80;9.50;;;2.80;99.90;;;;;;5062350;28;20242;-81
2022/01/20 10:59:57;;;;;;;10.70;10.40;;;1.80;99.90;;;;;;5151049;22;20216;-81
2022/01/20 11:02:44;;;;;;;10.50;10.20;;;1.50;99.90;;;;;;5141144;27;20240;-82
2022/01/20 11:05:15;;;;;;;10.10;9.80;;;1.20;99.90;;;;;;5142040;27;20227;-82
2022/01/20 11:07:44;;;;;;;9.90;9.60;;;0.80;99.90;;;;;;5142067;27;20212;-82
2022/01/20 11:13:07;;;;;;;10.40;10.10;;;0.50;99.90;;;;;;5137503;28;20201;-83
2022/01/20 11:15:41;;;;;;;10.60;10.30;;;0.60;99.90;;;;;;5129002;28;20250;-85
2022/01/20 11:18:15;;;;;;;10.17;9.87;;;0.60;99.90;;;;;;5115685;28;20243;-84
2022/01/20 11:20:45;;;;;;;10.50;10.20;;;0.50;99.90;;;;;;5108938;28;20274;-84
2022/01/20 11:23:46;;;;;;;10.27;9.97;;;0.50;99.90;;;;;;5111484;28;20242;-83
2022/01/20 11:26:19;;;;;;;10.13;9.83;;;0.50;99.90;;;;;;5109510;28;20236;-84
2022/01/20 11:29:07;;;;;;;10.40;10.10;;;0.40;99.90;;;;;;5111875;28;20235;-84
2022/01/20 11:31:37;;;;;;;10.50;10.20;;;0.50;99.90;;;;;;5114587;28;20217;-84
2022/01/20 11:34:15;;;;;;;10.10;9.80;;;0.40;99.90;;;;;;5118928;28;20229;-83
2022/01/20 11:36:46;;;;;;;10.27;9.97;;;0.40;99.90;;;;;;5119872;28;20305;-84
2022/01/20 11:39:15;;;;;;;10.37;10.07;;;0.50;99.90;;;;;;5117923;28;20221;-84
2022/01/20 11:41:48;;;;;;;10.50;10.20;;;0.50;99.90;;;;;;5105754;28;20225;-84
2022/01/20 11:44:41;;;;;;;10.33;10.03;;;0.60;99.90;;;;;;5106417;28;20237;-84
2022/01/20 11:47:11;;;;;;;10.33;10.03;;;0.60;99.90;;;;;;5106652;28;20230;-84
2022/01/20 11:49:43;;;;;;;10.20;9.90;;;0.60;99.90;;;;;;5104677;28;20245;-83
2022/01/20 11:52:34;;;;;;;10.50;10.20;;;0.70;99.90;;;;;;5105360;28;20228;-85
2022/01/20 11:55:26;;;;;;;10.70;10.40;;;0.70;99.90;;;;;;5109937;28;20225;-84
2022/01/20 12:00:47;;;;;;;10.40;10.10;;;1.10;99.90;;;;;;5122278;27;20217;-83
2022/01/20 12:03:16;;;;;;;10.60;10.30;;;1.30;99.90;;;;;;5122459;28;20224;-84
2022/01/20 12:05:45;;;;;;;10.63;10.33;;;1.30;99.90;;;;;;5122371;28;20224;-85
2022/01/20 12:08:24;;;;;;;10.60;10.30;;;1.30;99.90;;;;;;5123234;28;20233;-85
2022/01/20 12:11:15;;;;;;;10.70;10.40;;;1.30;99.90;;;;;;5121937;27;20282;-86
2022/01/20 12:13:50;;;;;;;11.17;10.87;;;1.40;99.90;;;;;;5124360;28;20225;-85
2022/01/20 12:16:28;;;;;;;10.57;10.27;;;1.40;99.90;;;;;;5123087;28;20220;-85
2022/01/20 12:18:59;;;;;;;10.57;10.27;;;1.40;99.90;;;;;;5122658;27;20233;-83
2022/01/20 12:21:36;;;;;;;10.60;10.30;;;1.40;99.90;;;;;;5122900;28;20315;-85
2022/01/20 12:24:06;;;;;;;10.60;10.30;;;1.40;99.90;;;;;;5122486;28;20282;-85
2022/01/20 12:26:35;;;;;;;10.27;9.97;;;1.50;99.90;;;;;;5122551;28;20228;-83
2022/01/20 12:29:06;;;;;;;10.40;10.10;;;1.50;99.90;;;;;;5122579;28;20240;-85
2022/01/20 12:31:51;;;;;;;10.53;10.23;;;1.50;99.90;;;;;;5122920;27;20271;-85
2022/01/20 12:34:29;;;;;;;9.80;9.50;;;1.70;99.90;;;;;;5124022;27;20233;-85
2022/01/20 12:36:58;;;;;;;9.70;9.40;;;2.10;99.90;;;;;;5122767;27;20267;-84
2022/01/20 12:42:17;;;;;;;10.00;9.70;;;2.60;99.90;;;;;;5130511;27;20219;-84
2022/01/20 12:45:03;;;;;;;9.87;9.57;;;2.90;99.90;;;;;;5136064;27;20231;-84
2022/01/20 12:47:39;;;;;;;9.93;9.63;;;3.20;99.90;;;;;;5106753;28;20233;-85
2022/01/20 12:50:10;;;;;;;9.30;9.00;;;3.60;99.90;;;;;;5102569;28;20225;-85
2022/01/20 12:52:48;;;;;;;9.00;8.80;;;3.80;99.90;;;;;;5110215;28;20236;-85
2022/01/20 12:55:17;;;;;;;8.77;8.57;;;4.00;99.90;;;;;;5102658;28;20236;-84
2022/01/20 12:57:46;;;;;;;8.87;8.67;;;4.00;99.90;;;;;;5102479;28;20331;-84
2022/01/20 13:00:15;;;;;;;8.80;8.60;;;4.00;99.90;;;;;;5109830;27;20352;-85
2022/01/20 13:02:53;;;;;;;9.00;8.80;;;4.10;99.90;;;;;;5123858;28;20712;-85
2022/01/20 13:05:27;;;;;;;9.30;9.00;;;4.20;99.90;;;;;;5132250;28;20289;-83
2022/01/20 13:08:01;;;;;;;8.80;8.60;;;4.40;99.90;;;;;;5138507;27;20223;-83
2022/01/20 13:10:34;;;;;;;9.50;9.20;;;4.20;99.90;;;;;;5137824;27;20316;-84
2022/01/20 13:13:29;;;;;;;9.50;9.20;;;4.10;99.90;;;;;;5126497;28;20217;-84
2022/01/20 13:15:57;;;;;;;9.50;9.20;;;3.90;99.90;;;;;;5128363;27;20263;-83
2022/01/20 13:18:35;;;;;;;9.30;9.00;;;4.00;99.90;;;;;;5128331;27;20271;-84
2022/01/20 13:21:05;;;;;;;9.57;9.27;;;4.20;99.90;;;;;;5128707;27;20327;-84
2022/01/20 13:24:02;;;;;;;9.43;9.13;;;4.30;99.90;;;;;;5119069;27;20230;-84
2022/01/20 13:26:30;;;;;;;9.37;9.07;;;4.20;99.90;;;;;;5128225;28;20211;-84
2022/01/20 13:29:07;;;;;;;9.27;8.97;;;4.00;99.90;;;;;;5127966;27;20233;-85
2022/01/20 13:31:38;;;;;;;9.10;8.90;;;3.70;99.90;;;;;;5132364;27;20224;-82
2022/01/20 13:34:19;;;;;;;8.83;8.63;;;3.50;99.90;;;;;;5141411;28;20277;-82
2022/01/20 13:36:49;;;;;;;8.70;8.50;;;3.40;99.90;;;;;;5129961;28;20240;-84
2022/01/20 13:39:36;;;;;;;8.87;8.67;;;3.30;99.90;;;;;;5128099;27;20255;-85
2022/01/20 13:42:28;;;;;;;9.60;9.30;;;3.10;99.90;;;;;;5115865;28;20218;-83
2022/01/20 13:45:13;;;;;;;9.30;9.00;;;2.90;99.90;;;;;;5104904;28;20263;-84
2022/01/20 13:47:54;;;;;;;9.00;8.80;;;2.60;99.90;;;;;;5104581;28;20233;-83
2022/01/20 13:50:32;;;;;;;9.20;8.90;;;2.40;99.90;;;;;;5106553;28;20209;-83
2022/01/20 13:53:13;;;;;;;9.50;9.20;;;2.30;99.90;;;;;;5104913;28;20233;-84
2022/01/20 13:55:51;;;;;;;9.50;9.20;;;2.40;99.90;;;;;;5104961;28;20296;-84
2022/01/20 13:58:27;;;;;;;9.40;9.10;;;2.40;99.90;;;;;;5103324;28;20248;-84
2022/01/20 14:00:57;;;;;;;9.40;9.10;;;2.30;99.90;;;;;;5105380;28;20213;-84
2022/01/20 14:03:26;;;;;;;9.70;9.40;;;2.30;99.90;;;;;;5103865;28;20233;-83
2022/01/20 14:06:15;;;;;;;9.17;8.90;;;2.20;99.90;;;;;;5104368;28;20213;-84
2022/01/20 14:08:52;;;;;;;9.40;9.10;;;2.20;99.90;;;;;;5104062;28;20280;-83
2022/01/20 14:11:21;;;;;;;9.30;9.00;;;2.10;99.90;;;;;;5104608;28;20221;-84
2022/01/20 14:13:50;;;;;;;9.60;9.30;;;2.10;99.90;;;;;;5103944;28;20218;-84
2022/01/20 14:16:20;;;;;;;9.10;8.80;;;2.20;99.90;;;;;;5103852;28;20229;-84
2022/01/20 14:18:56;;;;;;;9.50;9.20;;;2.30;99.90;;;;;;5104236;28;20252;-83
2022/01/20 14:21:47;;;;;;;9.27;8.97;;;2.40;99.90;;;;;;5103958;28;20225;-84
2022/01/20 14:24:15;;;;;;;9.20;8.90;;;2.50;99.90;;;;;;5104068;28;20229;-83
2022/01/20 14:26:44;;;;;;;9.30;9.00;;;2.40;99.90;;;;;;5103756;28;20225;-84
2022/01/20 14:29:13;;;;;;;9.30;9.00;;;2.40;99.90;;;;;;5103778;28;20670;-83
2022/01/20 14:31:42;;;;;;;9.20;8.90;;;2.40;99.90;;;;;;5104091;28;20237;-85